sensor_id;sensor_type;location;lat;lon;timestamp;pressure;altitude;pressure_sealevel;temperature;humidity
36380;BME280;22411;53.016;18.632;2023-05-17T00:00:16;100725.88;;;11.58;100.00
36380;BME280;22411;53.016;18.632;2023-05-17T00:03:01;100737.31;;;11.55;100.00
36380;BME280;22411;53.016;18.632;2023-05-17T00:05:27;100728.78;;;11.53;100.00
36380;BME280;22411;53.016;18.632;2023-05-17T00:07:53;100733.28;;;11.51;100.00
36380;BME280;22411;53.016;18.632;2023-05-17T00:10:18;100732.31;;;11.52;100.00
36380;BME280;22411;53.016;18.632;2023-05-17T00:12:44;100733.97;;;11.53;100.00
36380;BME280;22411;53.016;18.632;2023-05-17T00:15:10;100734.53;;;11.45;100.00
36380;BME280;22411;53.016;18.632;2023-05-17T00:17:36;100729.09;;;11.48;100.00
36380;BME280;22411;53.016;18.632;2023-05-17T00:20:03;100731.81;;;11.47;100.00
36380;BME280;22411;53.016;18.632;2023-05-17T00:22:30;100727.25;;;11.50;100.00
36380;BME280;22411;53.016;18.632;2023-05-17T00:24:55;100719.56;;;11.49;100.00
36380;BME280;22411;53.016;18.632;2023-05-17T00:27:21;100717.06;;;11.47;100.00
36380;BME280;22411;53.016;18.632;2023-05-17T00:29:47;100715.59;;;11.43;100.00
36380;BME280;22411;53.016;18.632;2023-05-17T00:32:12;100731.00;;;11.46;100.00
36380;BME280;22411;53.016;18.632;2023-05-17T00:34:38;100723.91;;;11.48;100.00
36380;BME280;22411;53.016;18.632;2023-05-17T00:37:04;100731.63;;;11.50;100.00
36380;BME280;22411;53.016;18.632;2023-05-17T00:39:29;100729.94;;;11.49;100.00
36380;BME280;22411;53.016;18.632;2023-05-17T00:41:55;100731.38;;;11.53;100.00
36380;BME280;22411;53.016;18.632;2023-05-17T00:44:21;100727.78;;;11.56;100.00
36380;BME280;22411;53.016;18.632;2023-05-17T00:46:46;100733.88;;;11.55;100.00
36380;BME280;22411;53.016;18.632;2023-05-17T00:49:15;100731.50;;;11.51;100.00
36380;BME280;22411;53.016;18.632;2023-05-17T00:51:40;100730.16;;;11.46;100.00
36380;BME280;22411;53.016;18.632;2023-05-17T00:54:06;100726.81;;;11.44;100.00
36380;BME280;22411;53.016;18.632;2023-05-17T00:56:32;100731.19;;;11.43;100.00
36380;BME280;22411;53.016;18.632;2023-05-17T00:58:58;100740.97;;;11.40;100.00
36380;BME280;22411;53.016;18.632;2023-05-17T01:01:25;100729.84;;;11.38;100.00
36380;BME280;22411;53.016;18.632;2023-05-17T01:03:51;100729.84;;;11.38;100.00
36380;BME280;22411;53.016;18.632;2023-05-17T01:06:17;100728.28;;;11.35;100.00
36380;BME280;22411;53.016;18.632;2023-05-17T01:08:43;100726.22;;;11.40;100.00
36380;BME280;22411;53.016;18.632;2023-05-17T01:18:57;100731.63;;;11.24;100.00
36380;BME280;22411;53.016;18.632;2023-05-17T01:21:35;100728.28;;;11.22;100.00
36380;BME280;22411;53.016;18.632;2023-05-17T01:24:39;100729.63;;;11.28;100.00
36380;BME280;22411;53.016;18.632;2023-05-17T01:27:09;100724.78;;;11.23;100.00
36380;BME280;22411;53.016;18.632;2023-05-17T01:29:36;100735.16;;;11.23;100.00
36380;BME280;22411;53.016;18.632;2023-05-17T01:32:03;100728.28;;;11.22;100.00
36380;BME280;22411;53.016;18.632;2023-05-17T01:34:30;100738.56;;;11.24;100.00
36380;BME280;22411;53.016;18.632;2023-05-17T01:36:56;100731.69;;;11.23;100.00
36380;BME280;22411;53.016;18.632;2023-05-17T01:39:22;100734.28;;;11.23;100.00
36380;BME280;22411;53.016;18.632;2023-05-17T01:42:07;100727.97;;;11.27;100.00
36380;BME280;22411;53.016;18.632;2023-05-17T01:44:46;100722.59;;;11.30;100.00
36380;BME280;22411;53.016;18.632;2023-05-17T01:47:20;100726.94;;;11.30;100.00
36380;BME280;22411;53.016;18.632;2023-05-17T01:49:51;100723.72;;;11.26;100.00
36380;BME280;22411;53.016;18.632;2023-05-17T01:55:04;100719.38;;;11.26;100.00
36380;BME280;22411;53.016;18.632;2023-05-17T01:57:35;100722.25;;;11.22;100.00
36380;BME280;22411;53.016;18.632;2023-05-17T02:00:05;100719.66;;;11.22;100.00
36380;BME280;22411;53.016;18.632;2023-05-17T02:02:31;100723.50;;;11.16;100.00
36380;BME280;22411;53.016;18.632;2023-05-17T02:04:57;100715.94;;;11.13;100.00
36380;BME280;22411;53.016;18.632;2023-05-17T02:07:23;100718.44;;;11.15;100.00
36380;BME280;22411;53.016;18.632;2023-05-17T02:09:48;100721.34;;;11.10;100.00
36380;BME280;22411;53.016;18.632;2023-05-17T02:12:14;100715.31;;;11.10;100.00
36380;BME280;22411;53.016;18.632;2023-05-17T02:14:40;100718.09;;;11.07;100.00
36380;BME280;22411;53.016;18.632;2023-05-17T02:17:06;100715.72;;;11.04;100.00
36380;BME280;22411;53.016;18.632;2023-05-17T02:19:31;100703.78;;;11.01;100.00
36380;BME280;22411;53.016;18.632;2023-05-17T02:21:57;100714.56;;;10.95;100.00
36380;BME280;22411;53.016;18.632;2023-05-17T02:24:23;100733.03;;;10.90;100.00
36380;BME280;22411;53.016;18.632;2023-05-17T02:26:49;100731.91;;;10.94;100.00
36380;BME280;22411;53.016;18.632;2023-05-17T02:29:14;100737.09;;;10.94;100.00
36380;BME280;22411;53.016;18.632;2023-05-17T02:31:40;100728.06;;;10.87;100.00
36380;BME280;22411;53.016;18.632;2023-05-17T02:34:06;100729.19;;;10.83;100.00
36380;BME280;22411;53.016;18.632;2023-05-17T02:36:31;100732.59;;;10.84;100.00
36380;BME280;22411;53.016;18.632;2023-05-17T02:38:57;100728.78;;;10.89;100.00
36380;BME280;22411;53.016;18.632;2023-05-17T02:41:23;100731.47;;;10.88;100.00
36380;BME280;22411;53.016;18.632;2023-05-17T02:43:49;100735.72;;;10.89;100.00
36380;BME280;22411;53.016;18.632;2023-05-17T02:46:15;100742.16;;;10.83;100.00
36380;BME280;22411;53.016;18.632;2023-05-17T02:48:40;100738.50;;;10.73;100.00
36380;BME280;22411;53.016;18.632;2023-05-17T02:51:06;100744.41;;;10.75;100.00
36380;BME280;22411;53.016;18.632;2023-05-17T02:53:32;100747.22;;;10.72;100.00
36380;BME280;22411;53.016;18.632;2023-05-17T02:55:57;100752.41;;;10.72;100.00
36380;BME280;22411;53.016;18.632;2023-05-17T02:58:24;100753.69;;;10.65;100.00
36380;BME280;22411;53.016;18.632;2023-05-17T03:00:50;100749.03;;;10.57;100.00
36380;BME280;22411;53.016;18.632;2023-05-17T03:03:16;100761.59;;;10.63;100.00
36380;BME280;22411;53.016;18.632;2023-05-17T03:05:42;100757.03;;;10.67;100.00
36380;BME280;22411;53.016;18.632;2023-05-17T03:08:07;100766.28;;;10.71;100.00
36380;BME280;22411;53.016;18.632;2023-05-17T03:10:33;100762.75;;;10.72;100.00
36380;BME280;22411;53.016;18.632;2023-05-17T03:12:59;100769.41;;;10.76;100.00
36380;BME280;22411;53.016;18.632;2023-05-17T03:15:25;100769.19;;;10.79;100.00
36380;BME280;22411;53.016;18.632;2023-05-17T03:17:54;100765.78;;;10.79;100.00
36380;BME280;22411;53.016;18.632;2023-05-17T03:20:21;100761.41;;;10.66;100.00
36380;BME280;22411;53.016;18.632;2023-05-17T03:22:47;100766.47;;;10.68;100.00
36380;BME280;22411;53.016;18.632;2023-05-17T03:25:13;100771.53;;;10.57;100.00
36380;BME280;22411;53.016;18.632;2023-05-17T03:27:39;100777.72;;;10.54;100.00
36380;BME280;22411;53.016;18.632;2023-05-17T03:30:05;100768.69;;;10.47;100.00
36380;BME280;22411;53.016;18.632;2023-05-17T03:32:30;100772.75;;;10.51;100.00
36380;BME280;22411;53.016;18.632;2023-05-17T03:34:56;100774.81;;;10.46;100.00
36380;BME280;22411;53.016;18.632;2023-05-17T03:37:22;100789.69;;;10.42;100.00
36380;BME280;22411;53.016;18.632;2023-05-17T03:39:47;100783.59;;;10.43;100.00
36380;BME280;22411;53.016;18.632;2023-05-17T03:42:13;100782.03;;;10.41;100.00
36380;BME280;22411;53.016;18.632;2023-05-17T03:44:39;100795.91;;;10.40;100.00
36380;BME280;22411;53.016;18.632;2023-05-17T03:47:05;100793.41;;;10.38;100.00
36380;BME280;22411;53.016;18.632;2023-05-17T03:49:31;100787.22;;;10.41;100.00
36380;BME280;22411;53.016;18.632;2023-05-17T03:51:57;100797.03;;;10.36;100.00
36380;BME280;22411;53.016;18.632;2023-05-17T03:54:23;100791.03;;;10.35;100.00
36380;BME280;22411;53.016;18.632;2023-05-17T03:56:48;100794.72;;;10.31;100.00
36380;BME280;22411;53.016;18.632;2023-05-17T03:59:15;100793.25;;;10.27;100.00
36380;BME280;22411;53.016;18.632;2023-05-17T04:01:42;100790.88;;;10.24;100.00
36380;BME280;22411;53.016;18.632;2023-05-17T04:04:08;100793.25;;;10.27;100.00
36380;BME280;22411;53.016;18.632;2023-05-17T04:06:34;100799.47;;;10.25;100.00
36380;BME280;22411;53.016;18.632;2023-05-17T04:09:00;100797.81;;;10.24;100.00
36380;BME280;22411;53.016;18.632;2023-05-17T04:11:26;100806.56;;;10.21;100.00
36380;BME280;22411;53.016;18.632;2023-05-17T04:13:53;100804.44;;;10.28;100.00
36380;BME280;22411;53.016;18.632;2023-05-17T04:16:19;100807.13;;;10.26;100.00
36380;BME280;22411;53.016;18.632;2023-05-17T04:18:45;100808.78;;;10.27;100.00
36380;BME280;22411;53.016;18.632;2023-05-17T04:21:11;100809.34;;;10.32;100.00
36380;BME280;22411;53.016;18.632;2023-05-17T04:23:37;100806.75;;;10.32;100.00
36380;BME280;22411;53.016;18.632;2023-05-17T04:26:04;100807.69;;;10.31;100.00
36380;BME280;22411;53.016;18.632;2023-05-17T04:28:31;100812.47;;;10.37;100.00
36380;BME280;22411;53.016;18.632;2023-05-17T04:30:56;100822.38;;;10.45;100.00
36380;BME280;22411;53.016;18.632;2023-05-17T04:33:23;100823.75;;;10.51;100.00
36380;BME280;22411;53.016;18.632;2023-05-17T04:35:49;100824.97;;;10.45;100.00
36380;BME280;22411;53.016;18.632;2023-05-17T04:38:15;100834.28;;;10.47;100.00
36380;BME280;22411;53.016;18.632;2023-05-17T04:40:41;100825.03;;;10.43;100.00
36380;BME280;22411;53.016;18.632;2023-05-17T04:43:07;100823.66;;;10.52;100.00
36380;BME280;22411;53.016;18.632;2023-05-17T04:45:33;100835.50;;;10.42;100.00
36380;BME280;22411;53.016;18.632;2023-05-17T04:47:59;100834.13;;;10.36;100.00
36380;BME280;22411;53.016;18.632;2023-05-17T04:50:25;100836.19;;;10.31;100.00
36380;BME280;22411;53.016;18.632;2023-05-17T04:52:51;100843.50;;;10.39;100.00
36380;BME280;22411;53.016;18.632;2023-05-17T04:55:17;100834.69;;;10.41;100.00
36380;BME280;22411;53.016;18.632;2023-05-17T04:57:43;100848.84;;;10.21;100.00
36380;BME280;22411;53.016;18.632;2023-05-17T05:00:09;100851.06;;;10.13;100.00
36380;BME280;22411;53.016;18.632;2023-05-17T05:02:36;100843.97;;;10.03;100.00
36380;BME280;22411;53.016;18.632;2023-05-17T05:05:02;100856.44;;;10.10;100.00
36380;BME280;22411;53.016;18.632;2023-05-17T05:07:29;100848.66;;;10.10;100.00
36380;BME280;22411;53.016;18.632;2023-05-17T05:09:56;100848.22;;;10.18;100.00
36380;BME280;22411;53.016;18.632;2023-05-17T05:12:22;100850.44;;;10.24;100.00
36380;BME280;22411;53.016;18.632;2023-05-17T05:14:48;100851.84;;;10.30;100.00
36380;BME280;22411;53.016;18.632;2023-05-17T05:17:14;100853.47;;;10.45;100.00
36380;BME280;22411;53.016;18.632;2023-05-17T05:19:39;100853.38;;;10.46;100.00
36380;BME280;22411;53.016;18.632;2023-05-17T05:22:05;100852.06;;;10.54;100.00
36380;BME280;22411;53.016;18.632;2023-05-17T05:24:31;100856.84;;;10.60;100.00
36380;BME280;22411;53.016;18.632;2023-05-17T05:26:57;100853.69;;;10.69;100.00
36380;BME280;22411;53.016;18.632;2023-05-17T05:29:22;100861.59;;;10.53;100.00
36380;BME280;22411;53.016;18.632;2023-05-17T05:31:48;100861.53;;;10.26;100.00
36380;BME280;22411;53.016;18.632;2023-05-17T05:34:14;100861.63;;;10.10;100.00
36380;BME280;22411;53.016;18.632;2023-05-17T05:36:40;100866.69;;;10.12;100.00
36380;BME280;22411;53.016;18.632;2023-05-17T05:39:05;100865.03;;;10.11;100.00
36380;BME280;22411;53.016;18.632;2023-05-17T05:41:31;100867.44;;;10.00;100.00
36380;BME280;22411;53.016;18.632;2023-05-17T05:43:57;100871.13;;;9.95;100.00
36380;BME280;22411;53.016;18.632;2023-05-17T05:46:23;100871.50;;;10.04;100.00
36380;BME280;22411;53.016;18.632;2023-05-17T05:48:48;100878.34;;;10.05;100.00
36380;BME280;22411;53.016;18.632;2023-05-17T05:51:14;100885.66;;;9.98;100.00
36380;BME280;22411;53.016;18.632;2023-05-17T05:53:40;100879.38;;;10.16;100.00
36380;BME280;22411;53.016;18.632;2023-05-17T05:56:05;100885.31;;;10.18;100.00
36380;BME280;22411;53.016;18.632;2023-05-17T05:58:31;100891.16;;;10.36;100.00
36380;BME280;22411;53.016;18.632;2023-05-17T06:00:57;100883.44;;;10.20;100.00
36380;BME280;22411;53.016;18.632;2023-05-17T06:03:24;100897.53;;;10.31;100.00
36380;BME280;22411;53.016;18.632;2023-05-17T06:05:50;100898.47;;;10.44;100.00
36380;BME280;22411;53.016;18.632;2023-05-17T06:08:15;100898.81;;;10.38;100.00
36380;BME280;22411;53.016;18.632;2023-05-17T06:10:41;100902.41;;;10.21;100.00
36380;BME280;22411;53.016;18.632;2023-05-17T06:13:07;100901.84;;;10.16;100.00
36380;BME280;22411;53.016;18.632;2023-05-17T06:15:32;100895.78;;;10.31;100.00
36380;BME280;22411;53.016;18.632;2023-05-17T06:17:58;100898.75;;;10.39;100.00
36380;BME280;22411;53.016;18.632;2023-05-17T06:20:24;100898.69;;;10.68;100.00
36380;BME280;22411;53.016;18.632;2023-05-17T06:22:49;100894.72;;;10.62;100.00
36380;BME280;22411;53.016;18.632;2023-05-17T06:25:15;100900.88;;;10.74;100.00
36380;BME280;22411;53.016;18.632;2023-05-17T06:27:41;100908.78;;;10.72;100.00
36380;BME280;22411;53.016;18.632;2023-05-17T06:30:07;100910.53;;;10.72;100.00
36380;BME280;22411;53.016;18.632;2023-05-17T06:32:34;100921.66;;;10.60;100.00
36380;BME280;22411;53.016;18.632;2023-05-17T06:34:59;100915.81;;;10.70;100.00
36380;BME280;22411;53.016;18.632;2023-05-17T06:37:25;100919.13;;;10.72;100.00
36380;BME280;22411;53.016;18.632;2023-05-17T06:39:51;100910.50;;;10.86;100.00
36380;BME280;22411;53.016;18.632;2023-05-17T06:42:17;100912.59;;;10.94;100.00
36380;BME280;22411;53.016;18.632;2023-05-17T06:44:43;100914.88;;;11.13;100.00
36380;BME280;22411;53.016;18.632;2023-05-17T06:47:08;100921.84;;;10.71;100.00
36380;BME280;22411;53.016;18.632;2023-05-17T06:49:36;100914.13;;;10.69;100.00
36380;BME280;22411;53.016;18.632;2023-05-17T06:52:02;100914.88;;;10.71;100.00
36380;BME280;22411;53.016;18.632;2023-05-17T06:54:30;100914.69;;;10.74;100.00
36380;BME280;22411;53.016;18.632;2023-05-17T06:57:02;100913.47;;;10.80;100.00
36380;BME280;22411;53.016;18.632;2023-05-17T06:59:28;100912.72;;;10.92;100.00
36380;BME280;22411;53.016;18.632;2023-05-17T07:01:54;100913.53;;;10.93;100.00
36380;BME280;22411;53.016;18.632;2023-05-17T07:04:21;100921.09;;;10.96;100.00
36380;BME280;22411;53.016;18.632;2023-05-17T07:06:47;100919.13;;;11.14;100.00
36380;BME280;22411;53.016;18.632;2023-05-17T07:09:13;100925.22;;;11.40;100.00
36380;BME280;22411;53.016;18.632;2023-05-17T07:11:38;100918.75;;;11.33;100.00
36380;BME280;22411;53.016;18.632;2023-05-17T07:14:04;100929.78;;;11.36;100.00
36380;BME280;22411;53.016;18.632;2023-05-17T07:16:30;100928.44;;;11.43;100.00
36380;BME280;22411;53.016;18.632;2023-05-17T07:18:55;100924.13;;;11.57;100.00
36380;BME280;22411;53.016;18.632;2023-05-17T07:21:22;100927.78;;;11.67;100.00
36380;BME280;22411;53.016;18.632;2023-05-17T07:23:49;100925.97;;;11.82;100.00
36380;BME280;22411;53.016;18.632;2023-05-17T07:26:16;100922.22;;;11.98;100.00
36380;BME280;22411;53.016;18.632;2023-05-17T07:28:42;100921.56;;;12.33;100.00
36380;BME280;22411;53.016;18.632;2023-05-17T07:31:08;100930.69;;;12.39;100.00
36380;BME280;22411;53.016;18.632;2023-05-17T07:33:34;100937.44;;;12.54;100.00
36380;BME280;22411;53.016;18.632;2023-05-17T07:36:00;100937.59;;;12.40;100.00
36380;BME280;22411;53.016;18.632;2023-05-17T07:38:25;100944.75;;;12.36;100.00
36380;BME280;22411;53.016;18.632;2023-05-17T07:40:51;100945.44;;;12.64;100.00
36380;BME280;22411;53.016;18.632;2023-05-17T07:43:17;100952.00;;;12.44;100.00
36380;BME280;22411;53.016;18.632;2023-05-17T07:45:42;100950.34;;;12.55;100.00
36380;BME280;22411;53.016;18.632;2023-05-17T07:48:08;100950.38;;;12.92;100.00
36380;BME280;22411;53.016;18.632;2023-05-17T07:50:34;100953.28;;;12.88;100.00
36380;BME280;22411;53.016;18.632;2023-05-17T07:52:59;100950.72;;;12.75;100.00
36380;BME280;22411;53.016;18.632;2023-05-17T07:55:25;100953.38;;;12.86;100.00
36380;BME280;22411;53.016;18.632;2023-05-17T07:57:51;100968.31;;;13.08;100.00
36380;BME280;22411;53.016;18.632;2023-05-17T08:00:17;100959.28;;;13.01;100.00
36380;BME280;22411;53.016;18.632;2023-05-17T08:02:47;100952.25;;;13.14;100.00
36380;BME280;22411;53.016;18.632;2023-05-17T08:05:13;100957.16;;;13.43;100.00
36380;BME280;22411;53.016;18.632;2023-05-17T08:07:39;100961.75;;;13.39;100.00
36380;BME280;22411;53.016;18.632;2023-05-17T08:10:04;100971.50;;;13.48;100.00
36380;BME280;22411;53.016;18.632;2023-05-17T08:12:30;100966.97;;;13.74;100.00
36380;BME280;22411;53.016;18.632;2023-05-17T08:14:56;100976.06;;;13.69;100.00
36380;BME280;22411;53.016;18.632;2023-05-17T08:17:22;100979.78;;;13.77;100.00
36380;BME280;22411;53.016;18.632;2023-05-17T08:19:47;100978.13;;;13.76;100.00
36380;BME280;22411;53.016;18.632;2023-05-17T08:22:14;100987.25;;;13.82;100.00
36380;BME280;22411;53.016;18.632;2023-05-17T08:24:40;100983.56;;;13.73;100.00
36380;BME280;22411;53.016;18.632;2023-05-17T08:27:05;100990.03;;;14.03;100.00
36380;BME280;22411;53.016;18.632;2023-05-17T08:29:31;100981.66;;;14.33;100.00
36380;BME280;22411;53.016;18.632;2023-05-17T08:31:57;100989.38;;;14.34;100.00
36380;BME280;22411;53.016;18.632;2023-05-17T08:34:22;100992.97;;;14.56;100.00
36380;BME280;22411;53.016;18.632;2023-05-17T08:36:48;100996.69;;;15.19;100.00
36380;BME280;22411;53.016;18.632;2023-05-17T08:39:14;101001.06;;;15.07;100.00
36380;BME280;22411;53.016;18.632;2023-05-17T08:41:40;100992.88;;;15.12;100.00
36380;BME280;22411;53.016;18.632;2023-05-17T08:44:06;100995.78;;;14.75;100.00
36380;BME280;22411;53.016;18.632;2023-05-17T08:46:32;101003.50;;;14.65;100.00
36380;BME280;22411;53.016;18.632;2023-05-17T08:48:59;100993.88;;;14.55;100.00
36380;BME280;22411;53.016;18.632;2023-05-17T08:51:27;100995.31;;;14.81;100.00
36380;BME280;22411;53.016;18.632;2023-05-17T08:53:54;101005.44;;;15.29;100.00
36380;BME280;22411;53.016;18.632;2023-05-17T08:56:20;101005.06;;;14.68;100.00
36380;BME280;22411;53.016;18.632;2023-05-17T08:58:51;100992.69;;;14.93;100.00
36380;BME280;22411;53.016;18.632;2023-05-17T09:01:17;100993.53;;;14.93;100.00
36380;BME280;22411;53.016;18.632;2023-05-17T09:03:46;100988.31;;;14.71;100.00
36380;BME280;22411;53.016;18.632;2023-05-17T09:06:16;101000.91;;;14.77;100.00
36380;BME280;22411;53.016;18.632;2023-05-17T09:08:44;101004.53;;;14.97;100.00
36380;BME280;22411;53.016;18.632;2023-05-17T09:11:11;101000.81;;;15.22;100.00
36380;BME280;22411;53.016;18.632;2023-05-17T09:13:37;101017.63;;;15.40;100.00
36380;BME280;22411;53.016;18.632;2023-05-17T09:16:12;101007.69;;;15.23;100.00
36380;BME280;22411;53.016;18.632;2023-05-17T09:18:38;100996.38;;;14.90;100.00
36380;BME280;22411;53.016;18.632;2023-05-17T09:21:04;100993.41;;;14.83;100.00
36380;BME280;22411;53.016;18.632;2023-05-17T09:23:30;100985.44;;;14.96;100.00
36380;BME280;22411;53.016;18.632;2023-05-17T09:26:04;100993.13;;;15.20;100.00
36380;BME280;22411;53.016;18.632;2023-05-17T09:28:36;100991.78;;;15.26;100.00
36380;BME280;22411;53.016;18.632;2023-05-17T09:31:06;100988.84;;;15.19;100.00
36380;BME280;22411;53.016;18.632;2023-05-17T09:33:33;100990.50;;;15.52;100.00
36380;BME280;22411;53.016;18.632;2023-05-17T09:36:01;100986.41;;;15.71;100.00
36380;BME280;22411;53.016;18.632;2023-05-17T09:38:26;100990.03;;;16.42;100.00
36380;BME280;22411;53.016;18.632;2023-05-17T09:40:52;100993.50;;;16.21;100.00
36380;BME280;22411;53.016;18.632;2023-05-17T09:43:23;100999.41;;;15.61;100.00
36380;BME280;22411;53.016;18.632;2023-05-17T09:45:57;100999.88;;;15.87;100.00
36380;BME280;22411;53.016;18.632;2023-05-17T09:48:25;101006.19;;;15.84;100.00
36380;BME280;22411;53.016;18.632;2023-05-17T09:50:51;100994.59;;;15.45;100.00
36380;BME280;22411;53.016;18.632;2023-05-17T09:53:27;100999.88;;;15.55;100.00
36380;BME280;22411;53.016;18.632;2023-05-17T09:55:54;100988.72;;;15.64;100.00
36380;BME280;22411;53.016;18.632;2023-05-17T09:58:21;100989.09;;;15.16;100.00
36380;BME280;22411;53.016;18.632;2023-05-17T10:00:58;100990.00;;;15.58;100.00
36380;BME280;22411;53.016;18.632;2023-05-17T10:03:25;100993.44;;;15.27;100.00
36380;BME280;22411;53.016;18.632;2023-05-17T10:05:52;100997.78;;;15.05;100.00
36380;BME280;22411;53.016;18.632;2023-05-17T10:08:21;100997.31;;;15.00;100.00
36380;BME280;22411;53.016;18.632;2023-05-17T10:10:48;100994.59;;;15.34;100.00
36380;BME280;22411;53.016;18.632;2023-05-17T10:13:20;101006.84;;;15.33;100.00
36380;BME280;22411;53.016;18.632;2023-05-17T10:15:50;100998.84;;;14.91;100.00
36380;BME280;22411;53.016;18.632;2023-05-17T10:18:16;101007.09;;;15.62;100.00
36380;BME280;22411;53.016;18.632;2023-05-17T10:20:43;101002.91;;;16.03;100.00
36380;BME280;22411;53.016;18.632;2023-05-17T10:23:10;100994.59;;;16.50;100.00
36380;BME280;22411;53.016;18.632;2023-05-17T10:25:37;100999.00;;;16.49;100.00
36380;BME280;22411;53.016;18.632;2023-05-17T10:28:03;100996.63;;;16.77;100.00
36380;BME280;22411;53.016;18.632;2023-05-17T10:30:32;100990.66;;;16.95;100.00
36380;BME280;22411;53.016;18.632;2023-05-17T10:32:59;100991.41;;;17.36;100.00
36380;BME280;22411;53.016;18.632;2023-05-17T10:35:26;100990.59;;;17.84;100.00
36380;BME280;22411;53.016;18.632;2023-05-17T10:37:52;100990.00;;;17.03;100.00
36380;BME280;22411;53.016;18.632;2023-05-17T10:40:18;100985.09;;;16.48;100.00
36380;BME280;22411;53.016;18.632;2023-05-17T10:42:51;100983.41;;;16.17;100.00
36380;BME280;22411;53.016;18.632;2023-05-17T10:45:22;100980.81;;;16.47;100.00
36380;BME280;22411;53.016;18.632;2023-05-17T10:47:52;100979.47;;;16.53;100.00
36380;BME280;22411;53.016;18.632;2023-05-17T10:50:22;100987.31;;;16.53;100.00
36380;BME280;22411;53.016;18.632;2023-05-17T10:52:49;100986.59;;;16.72;100.00
36380;BME280;22411;53.016;18.632;2023-05-17T10:55:20;100992.19;;;17.08;100.00
36380;BME280;22411;53.016;18.632;2023-05-17T10:58:07;100997.69;;;16.13;100.00
36380;BME280;22411;53.016;18.632;2023-05-17T11:00:38;100990.66;;;15.83;100.00
36380;BME280;22411;53.016;18.632;2023-05-17T11:05:43;100999.25;;;15.94;100.00
36380;BME280;22411;53.016;18.632;2023-05-17T11:08:16;100997.22;;;15.77;100.00
36380;BME280;22411;53.016;18.632;2023-05-17T11:13:33;101003.69;;;16.86;100.00
36380;BME280;22411;53.016;18.632;2023-05-17T11:16:20;101004.53;;;16.86;100.00
36380;BME280;22411;53.016;18.632;2023-05-17T11:18:51;101009.69;;;16.67;100.00
36380;BME280;22411;53.016;18.632;2023-05-17T11:21:17;101004.78;;;16.73;100.00
36380;BME280;22411;53.016;18.632;2023-05-17T11:23:44;101000.28;;;16.34;100.00
36380;BME280;22411;53.016;18.632;2023-05-17T11:26:23;101007.47;;;16.11;100.00
36380;BME280;22411;53.016;18.632;2023-05-17T11:29:06;101015.75;;;15.74;100.00
36380;BME280;22411;53.016;18.632;2023-05-17T11:31:34;101011.84;;;15.25;100.00
36380;BME280;22411;53.016;18.632;2023-05-17T11:34:03;101011.53;;;14.96;100.00
36380;BME280;22411;53.016;18.632;2023-05-17T11:36:29;101013.47;;;15.37;100.00
36380;BME280;22411;53.016;18.632;2023-05-17T11:39:14;101017.56;;;15.08;100.00
36380;BME280;22411;53.016;18.632;2023-05-17T11:41:52;101023.31;;;15.34;100.00
36380;BME280;22411;53.016;18.632;2023-05-17T11:44:22;101023.91;;;16.02;100.00
36380;BME280;22411;53.016;18.632;2023-05-17T11:46:49;101015.38;;;16.20;100.00
36380;BME280;22411;53.016;18.632;2023-05-17T11:49:15;101009.06;;;16.54;100.00
36380;BME280;22411;53.016;18.632;2023-05-17T11:51:41;101021.19;;;16.85;100.00
36380;BME280;22411;53.016;18.632;2023-05-17T11:54:08;101018.84;;;16.52;100.00
36380;BME280;22411;53.016;18.632;2023-05-17T11:56:34;101037.59;;;15.30;100.00
36380;BME280;22411;53.016;18.632;2023-05-17T11:59:02;101025.03;;;15.12;100.00
36380;BME280;22411;53.016;18.632;2023-05-17T12:01:41;101029.34;;;15.13;100.00
36380;BME280;22411;53.016;18.632;2023-05-17T12:04:07;101027.44;;;15.04;100.00
36380;BME280;22411;53.016;18.632;2023-05-17T12:06:33;101032.88;;;15.01;100.00
36380;BME280;22411;53.016;18.632;2023-05-17T12:09:00;101041.00;;;14.87;100.00
36380;BME280;22411;53.016;18.632;2023-05-17T12:11:26;101051.19;;;14.79;100.00
36380;BME280;22411;53.016;18.632;2023-05-17T12:13:52;101051.66;;;14.95;100.00
36380;BME280;22411;53.016;18.632;2023-05-17T12:16:20;101049.84;;;15.07;100.00
36380;BME280;22411;53.016;18.632;2023-05-17T12:18:48;101040.91;;;15.32;100.00
36380;BME280;22411;53.016;18.632;2023-05-17T12:21:15;101057.66;;;15.18;100.00
36380;BME280;22411;53.016;18.632;2023-05-17T12:23:46;101064.69;;;14.84;100.00
36380;BME280;22411;53.016;18.632;2023-05-17T12:26:16;101066.81;;;14.56;100.00
36380;BME280;22411;53.016;18.632;2023-05-17T12:28:43;101069.72;;;14.29;100.00
36380;BME280;22411;53.016;18.632;2023-05-17T12:31:16;101068.00;;;14.17;100.00
36380;BME280;22411;53.016;18.632;2023-05-17T12:33:43;101078.50;;;14.39;100.00
36380;BME280;22411;53.016;18.632;2023-05-17T12:36:12;101073.69;;;14.57;100.00
36380;BME280;22411;53.016;18.632;2023-05-17T12:38:40;101080.44;;;14.60;100.00
36380;BME280;22411;53.016;18.632;2023-05-17T12:41:08;101078.56;;;14.51;100.00
36380;BME280;22411;53.016;18.632;2023-05-17T12:43:36;101081.22;;;14.38;100.00
36380;BME280;22411;53.016;18.632;2023-05-17T12:46:05;101086.22;;;14.41;100.00